Gilby, North Dakota
Current Conditions -  °F | °C
As of 10:58 AM on Sunday 23 Nov 2014 (Local Time) from KRDR Reporting Station
Scattered Clouds Scattered Clouds  
Wind Chill: 38°   Ceiling: Unl
Heat Index: 45°   Visibility: 10mi
Dew Point: 35°   Wind: 16mph
Humidity: 67%   Direction: 300°WNW
Pressure: 29.4"   Gusts: 24mph
Location:  48.09°N, 97.47°W
Report Text: KRDR 231658Z AUTO 30014G21KT 10SM SCT060 07/02 A2940 RMK AO2 SLP968 T00740017
Loading
Personal Weather Stations






























Interactive Weather Map New forecast layout! Learn more

10-Day Weather Forecast

Advertisements
Track Severe Weather on mobile